sensor_id;sensor_type;location;lat;lon;timestamp;pressure;altitude;pressure_sealevel;temperature;humidity
2188;BME280;1100;52.014;8.540;2022-08-07T07:29:26;101185.41;;;16.62;58.53
2188;BME280;1100;52.014;8.540;2022-08-07T07:31:56;101193.09;;;16.71;58.39
2188;BME280;1100;52.014;8.540;2022-08-07T07:34:25;101183.31;;;16.76;58.27
2188;BME280;1100;52.014;8.540;2022-08-07T07:36:52;101179.13;;;16.80;58.23
2188;BME280;1100;52.014;8.540;2022-08-07T07:39:20;101179.34;;;16.86;58.33
2188;BME280;1100;52.014;8.540;2022-08-07T07:41:48;101177.81;;;16.94;58.15
2188;BME280;1100;52.014;8.540;2022-08-07T07:44:16;101180.84;;;17.00;58.13
2188;BME280;1100;52.014;8.540;2022-08-07T07:46:43;101183.03;;;17.05;58.07
2188;BME280;1100;52.014;8.540;2022-08-07T07:49:10;101179.69;;;17.11;58.08
2188;BME280;1100;52.014;8.540;2022-08-07T07:51:39;101182.66;;;17.16;58.11
2188;BME280;1100;52.014;8.540;2022-08-07T07:54:06;101185.06;;;17.27;58.24
2188;BME280;1100;52.014;8.540;2022-08-07T07:56:32;101176.72;;;17.37;57.97
2188;BME280;1100;52.014;8.540;2022-08-07T07:59:03;101176.75;;;17.46;57.94
2188;BME280;1100;52.014;8.540;2022-08-07T08:01:30;101172.09;;;17.52;57.96
2188;BME280;1100;52.014;8.540;2022-08-07T08:03:59;101169.91;;;17.56;57.80
2188;BME280;1100;52.014;8.540;2022-08-07T08:06:27;101173.22;;;17.64;57.73
2188;BME280;1100;52.014;8.540;2022-08-07T08:08:54;101169.81;;;17.70;57.59
2188;BME280;1100;52.014;8.540;2022-08-07T08:11:20;101161.22;;;17.73;57.41
2188;BME280;1100;52.014;8.540;2022-08-07T08:13:47;101164.22;;;17.79;57.72
2188;BME280;1100;52.014;8.540;2022-08-07T08:16:19;101160.31;;;17.86;57.40
2188;BME280;1100;52.014;8.540;2022-08-07T08:18:46;101158.91;;;17.90;57.43
2188;BME280;1100;52.014;8.540;2022-08-07T08:21:17;101158.63;;;17.98;57.06
2188;BME280;1100;52.014;8.540;2022-08-07T08:24:02;101163.63;;;18.03;57.45
2188;BME280;1100;52.014;8.540;2022-08-07T08:26:49;101151.66;;;18.12;57.33
2188;BME280;1100;52.014;8.540;2022-08-07T08:29:51;101159.31;;;18.21;57.31
2188;BME280;1100;52.014;8.540;2022-08-07T08:32:20;101157.78;;;18.29;57.37
2188;BME280;1100;52.014;8.540;2022-08-07T08:34:49;101170.59;;;18.39;57.32
2188;BME280;1100;52.014;8.540;2022-08-07T08:37:15;101162.16;;;18.49;57.25
2188;BME280;1100;52.014;8.540;2022-08-07T08:39:42;101153.84;;;18.54;57.24
2188;BME280;1100;52.014;8.540;2022-08-07T08:42:45;101158.25;;;18.65;57.14
2188;BME280;1100;52.014;8.540;2022-08-07T08:48:53;101148.03;;;18.86;56.91
2188;BME280;1100;52.014;8.540;2022-08-07T08:51:43;101141.63;;;18.95;56.65
2188;BME280;1100;52.014;8.540;2022-08-07T08:54:46;101147.22;;;19.04;56.43
2188;BME280;1100;52.014;8.540;2022-08-07T08:57:07;101151.75;;;19.11;56.37
2188;BME280;1100;52.014;8.540;2022-08-07T08:59:46;101142.19;;;19.18;56.03
2188;BME280;1100;52.014;8.540;2022-08-07T09:08:33;101148.19;;;19.45;55.63
2188;BME280;1100;52.014;8.540;2022-08-07T09:11:01;101138.91;;;19.53;55.54
2188;BME280;1100;52.014;8.540;2022-08-07T09:19:53;101132.41;;;19.96;55.09
2188;BME280;1100;52.014;8.540;2022-08-07T09:25:11;101129.78;;;20.17;54.75
2188;BME280;1100;52.014;8.540;2022-08-07T09:27:51;101140.22;;;20.26;54.73
2188;BME280;1100;52.014;8.540;2022-08-07T09:30:22;101139.06;;;20.33;54.57
2188;BME280;1100;52.014;8.540;2022-08-07T09:40:41;101135.53;;;19.98;53.56
2188;BME280;1100;52.014;8.540;2022-08-07T09:45:41;101125.94;;;19.80;53.50
2188;BME280;1100;52.014;8.540;2022-08-07T09:48:33;101130.66;;;19.74;53.38
2188;BME280;1100;52.014;8.540;2022-08-07T09:53:50;101122.91;;;19.60;53.31
2188;BME280;1100;52.014;8.540;2022-08-07T09:56:41;101123.56;;;19.54;53.29
2188;BME280;1100;52.014;8.540;2022-08-07T09:59:32;101119.66;;;19.52;53.12
2188;BME280;1100;52.014;8.540;2022-08-07T10:04:55;101105.28;;;19.50;53.24
2188;BME280;1100;52.014;8.540;2022-08-07T10:07:39;101110.72;;;19.53;53.42
2188;BME280;1100;52.014;8.540;2022-08-07T10:10:32;101109.00;;;19.56;53.21
2188;BME280;1100;52.014;8.540;2022-08-07T10:13:22;101107.09;;;19.62;53.33
2188;BME280;1100;52.014;8.540;2022-08-07T10:32:36;101084.13;;;21.96;52.52
2188;BME280;1100;52.014;8.540;2022-08-07T10:35:18;101084.91;;;22.23;52.31
2188;BME280;1100;52.014;8.540;2022-08-07T10:37:59;101086.13;;;22.64;52.61
2188;BME280;1100;52.014;8.540;2022-08-07T10:40:35;101080.84;;;22.77;52.39
2188;BME280;1100;52.014;8.540;2022-08-07T10:43:14;101082.16;;;22.82;51.78
2188;BME280;1100;52.014;8.540;2022-08-07T10:45:47;101073.81;;;22.67;50.99
2188;BME280;1100;52.014;8.540;2022-08-07T10:49:09;101089.72;;;22.38;50.54
2188;BME280;1100;52.014;8.540;2022-08-07T10:52:01;101075.00;;;22.07;50.45
2188;BME280;1100;52.014;8.540;2022-08-07T10:54:41;101079.41;;;21.72;50.25
2188;BME280;1100;52.014;8.540;2022-08-07T10:57:33;101072.41;;;21.47;50.24
2188;BME280;1100;52.014;8.540;2022-08-07T11:00:11;101065.88;;;21.40;50.16
2188;BME280;1100;52.014;8.540;2022-08-07T11:02:55;101071.41;;;21.50;50.66
2188;BME280;1100;52.014;8.540;2022-08-07T11:05:48;101067.81;;;21.70;50.63
2188;BME280;1100;52.014;8.540;2022-08-07T11:08:42;101065.84;;;21.97;51.21
2188;BME280;1100;52.014;8.540;2022-08-07T11:13:43;101059.53;;;22.08;50.39
2188;BME280;1100;52.014;8.540;2022-08-07T11:16:18;101050.75;;;22.06;50.45
2188;BME280;1100;52.014;8.540;2022-08-07T11:18:50;101049.09;;;21.94;50.22
2188;BME280;1100;52.014;8.540;2022-08-07T11:21:54;101047.91;;;21.80;49.96
2188;BME280;1100;52.014;8.540;2022-08-07T11:24:36;101045.75;;;21.95;50.12
2188;BME280;1100;52.014;8.540;2022-08-07T11:27:22;101046.59;;;22.55;50.80
2188;BME280;1100;52.014;8.540;2022-08-07T11:30:11;101044.47;;;23.08;51.10
2188;BME280;1100;52.014;8.540;2022-08-07T11:35:29;101043.28;;;26.92;51.85
2188;BME280;1100;52.014;8.540;2022-08-07T11:38:19;101038.72;;;28.81;51.31
2188;BME280;1100;52.014;8.540;2022-08-07T11:40:58;101036.19;;;30.42;49.50
2188;BME280;1100;52.014;8.540;2022-08-07T11:43:30;101029.81;;;31.37;48.77
2188;BME280;1100;52.014;8.540;2022-08-07T11:46:18;101038.03;;;32.54;47.42
2188;BME280;1100;52.014;8.540;2022-08-07T11:57:58;101016.09;;;33.21;44.54
2188;BME280;1100;52.014;8.540;2022-08-07T12:00:39;101015.72;;;33.66;45.07
2188;BME280;1100;52.014;8.540;2022-08-07T12:03:32;101015.00;;;32.85;43.94
2188;BME280;1100;52.014;8.540;2022-08-07T12:09:00;101024.34;;;30.89;42.04
2188;BME280;1100;52.014;8.540;2022-08-07T12:11:44;101020.00;;;31.32;43.15
2188;BME280;1100;52.014;8.540;2022-08-07T12:14:22;101015.22;;;30.48;42.83
2188;BME280;1100;52.014;8.540;2022-08-07T12:17:28;101007.31;;;29.08;41.48
2188;BME280;1100;52.014;8.540;2022-08-07T12:19:58;101007.44;;;28.04;41.97
2188;BME280;1100;52.014;8.540;2022-08-07T12:25:21;101007.16;;;26.44;42.36
2188;BME280;1100;52.014;8.540;2022-08-07T12:28:21;101004.00;;;25.69;42.47
2188;BME280;1100;52.014;8.540;2022-08-07T12:30:50;101008.84;;;25.09;42.09
2188;BME280;1100;52.014;8.540;2022-08-07T12:33:19;100999.84;;;24.54;42.60
2188;BME280;1100;52.014;8.540;2022-08-07T12:35:47;100991.78;;;24.12;42.61
2188;BME280;1100;52.014;8.540;2022-08-07T12:38:14;100993.75;;;23.77;42.67
2188;BME280;1100;52.014;8.540;2022-08-07T12:40:41;100986.72;;;23.49;43.10
2188;BME280;1100;52.014;8.540;2022-08-07T12:43:09;100993.31;;;23.29;43.49
2188;BME280;1100;52.014;8.540;2022-08-07T12:48:35;100987.00;;;23.08;43.63
2188;BME280;1100;52.014;8.540;2022-08-07T12:51:10;100988.13;;;23.94;43.43
2188;BME280;1100;52.014;8.540;2022-08-07T12:53:44;100983.53;;;24.71;44.40
2188;BME280;1100;52.014;8.540;2022-08-07T12:56:38;100980.91;;;25.08;44.03
2188;BME280;1100;52.014;8.540;2022-08-07T12:59:06;100978.81;;;25.14;43.25
2188;BME280;1100;52.014;8.540;2022-08-07T13:04:40;100975.81;;;24.55;42.78
2188;BME280;1100;52.014;8.540;2022-08-07T13:20:43;100961.59;;;29.03;41.86
2188;BME280;1100;52.014;8.540;2022-08-07T13:23:16;100955.84;;;28.16;40.91
2188;BME280;1100;52.014;8.540;2022-08-07T13:25:53;100955.94;;;27.14;40.90
2188;BME280;1100;52.014;8.540;2022-08-07T13:28:34;100958.03;;;26.32;41.30
2188;BME280;1100;52.014;8.540;2022-08-07T13:31:10;100956.22;;;26.85;41.68
2188;BME280;1100;52.014;8.540;2022-08-07T13:33:56;100955.31;;;27.02;42.34
2188;BME280;1100;52.014;8.540;2022-08-07T13:36:29;100952.75;;;27.42;42.44
2188;BME280;1100;52.014;8.540;2022-08-07T13:39:05;100951.03;;;27.53;42.20
2188;BME280;1100;52.014;8.540;2022-08-07T13:41:44;100940.38;;;27.34;41.44
2188;BME280;1100;52.014;8.540;2022-08-07T13:44:17;100942.69;;;26.91;41.07
2188;BME280;1100;52.014;8.540;2022-08-07T13:46:45;100940.88;;;26.38;40.99
2188;BME280;1100;52.014;8.540;2022-08-07T13:49:12;100942.66;;;26.05;41.01
2188;BME280;1100;52.014;8.540;2022-08-07T13:51:41;100936.75;;;26.03;41.39
2188;BME280;1100;52.014;8.540;2022-08-07T13:54:11;100934.72;;;26.59;41.91
2188;BME280;1100;52.014;8.540;2022-08-07T13:56:39;100938.41;;;26.79;42.16
2188;BME280;1100;52.014;8.540;2022-08-07T13:59:14;100931.91;;;27.28;41.51
2188;BME280;1100;52.014;8.540;2022-08-07T14:01:50;100929.72;;;28.98;41.67
2188;BME280;1100;52.014;8.540;2022-08-07T14:04:17;100931.56;;;30.86;42.39
2188;BME280;1100;52.014;8.540;2022-08-07T14:06:44;100930.59;;;32.67;41.53
2188;BME280;1100;52.014;8.540;2022-08-07T14:09:21;100933.19;;;34.37;40.66
2188;BME280;1100;52.014;8.540;2022-08-07T14:11:59;100930.81;;;35.60;40.36
2188;BME280;1100;52.014;8.540;2022-08-07T14:14:29;100932.22;;;36.63;39.25
2188;BME280;1100;52.014;8.540;2022-08-07T14:17:00;100934.72;;;37.58;39.03
2188;BME280;1100;52.014;8.540;2022-08-07T14:19:45;100925.59;;;38.47;38.37
2188;BME280;1100;52.014;8.540;2022-08-07T14:22:17;100925.31;;;39.21;37.88
2188;BME280;1100;52.014;8.540;2022-08-07T14:24:48;100921.47;;;39.76;37.37
2188;BME280;1100;52.014;8.540;2022-08-07T14:27:20;100921.72;;;40.16;36.97
2188;BME280;1100;52.014;8.540;2022-08-07T14:29:54;100923.22;;;40.17;36.12
2188;BME280;1100;52.014;8.540;2022-08-07T14:32:20;100923.56;;;40.35;36.25
2188;BME280;1100;52.014;8.540;2022-08-07T14:34:47;100920.88;;;40.52;35.68
2188;BME280;1100;52.014;8.540;2022-08-07T14:37:16;100917.69;;;40.59;35.30
2188;BME280;1100;52.014;8.540;2022-08-07T14:39:43;100917.69;;;40.59;35.01
2188;BME280;1100;52.014;8.540;2022-08-07T14:42:11;100919.09;;;40.58;35.06
2188;BME280;1100;52.014;8.540;2022-08-07T14:44:45;100912.22;;;40.66;34.31
2188;BME280;1100;52.014;8.540;2022-08-07T14:47:15;100913.50;;;40.63;34.48
2188;BME280;1100;52.014;8.540;2022-08-07T14:49:42;100904.03;;;40.50;34.09
2188;BME280;1100;52.014;8.540;2022-08-07T14:52:07;100901.38;;;40.42;33.93
2188;BME280;1100;52.014;8.540;2022-08-07T14:54:36;100900.66;;;40.42;33.85
2188;BME280;1100;52.014;8.540;2022-08-07T14:57:04;100900.75;;;40.44;34.21
2188;BME280;1100;52.014;8.540;2022-08-07T14:59:33;100899.09;;;40.41;33.77
2188;BME280;1100;52.014;8.540;2022-08-07T15:02:09;100900.84;;;40.20;33.53
2188;BME280;1100;52.014;8.540;2022-08-07T15:04:39;100902.47;;;39.99;33.02
2188;BME280;1100;52.014;8.540;2022-08-07T15:07:07;100896.91;;;39.79;33.21
2188;BME280;1100;52.014;8.540;2022-08-07T15:09:38;100893.38;;;39.57;32.83
2188;BME280;1100;52.014;8.540;2022-08-07T15:12:08;100890.94;;;39.29;32.62
2188;BME280;1100;52.014;8.540;2022-08-07T15:14:35;100889.91;;;38.79;32.73
2188;BME280;1100;52.014;8.540;2022-08-07T15:17:03;100889.59;;;38.41;32.40
2188;BME280;1100;52.014;8.540;2022-08-07T15:19:37;100881.44;;;38.27;32.74
2188;BME280;1100;52.014;8.540;2022-08-07T15:22:04;100878.00;;;38.19;32.64
2188;BME280;1100;52.014;8.540;2022-08-07T15:24:33;100884.06;;;37.59;32.52
2188;BME280;1100;52.014;8.540;2022-08-07T15:27:29;100877.75;;;37.31;31.88
2188;BME280;1100;52.014;8.540;2022-08-07T15:29:59;100871.22;;;37.11;32.25
2188;BME280;1100;52.014;8.540;2022-08-07T15:32:26;100881.72;;;36.07;32.11
2188;BME280;1100;52.014;8.540;2022-08-07T15:34:54;100882.69;;;34.64;31.69
2188;BME280;1100;52.014;8.540;2022-08-07T15:37:25;100874.81;;;33.11;31.83
2188;BME280;1100;52.014;8.540;2022-08-07T15:40:03;100868.88;;;31.66;32.06
2188;BME280;1100;52.014;8.540;2022-08-07T15:45:08;100867.09;;;29.43;32.96
2188;BME280;1100;52.014;8.540;2022-08-07T15:47:38;100860.75;;;28.62;33.20
2188;BME280;1100;52.014;8.540;2022-08-07T15:50:10;100867.88;;;27.95;33.53
2188;BME280;1100;52.014;8.540;2022-08-07T15:52:38;100870.19;;;27.44;34.06
2188;BME280;1100;52.014;8.540;2022-08-07T15:55:09;100862.53;;;26.95;34.17
2188;BME280;1100;52.014;8.540;2022-08-07T15:57:36;100858.13;;;26.49;34.39
2188;BME280;1100;52.014;8.540;2022-08-07T16:00:03;100855.09;;;26.11;34.53
2188;BME280;1100;52.014;8.540;2022-08-07T16:02:32;100855.38;;;25.77;34.80
2188;BME280;1100;52.014;8.540;2022-08-07T16:05:01;100852.72;;;25.48;34.97
2188;BME280;1100;52.014;8.540;2022-08-07T16:07:39;100859.84;;;25.24;35.00
2188;BME280;1100;52.014;8.540;2022-08-07T16:10:11;100835.69;;;24.94;35.38
2188;BME280;1100;52.014;8.540;2022-08-07T16:15:12;100854.41;;;24.49;35.66
2188;BME280;1100;52.014;8.540;2022-08-07T16:28:51;100849.03;;;23.71;36.60
2188;BME280;1100;52.014;8.540;2022-08-07T16:34:11;100839.94;;;23.44;36.78
2188;BME280;1100;52.014;8.540;2022-08-07T16:39:53;100838.06;;;23.24;37.16
2188;BME280;1100;52.014;8.540;2022-08-07T16:42:33;100842.19;;;23.17;37.21
2188;BME280;1100;52.014;8.540;2022-08-07T16:53:28;100838.25;;;22.97;37.41
2188;BME280;1100;52.014;8.540;2022-08-07T17:04:32;100842.53;;;22.75;37.66
2188;BME280;1100;52.014;8.540;2022-08-07T17:07:15;100840.22;;;22.74;37.63
2188;BME280;1100;52.014;8.540;2022-08-07T17:12:42;100832.19;;;22.67;38.08
2188;BME280;1100;52.014;8.540;2022-08-07T17:20:35;100831.91;;;22.59;38.07
2188;BME280;1100;52.014;8.540;2022-08-07T17:28:54;100823.84;;;22.51;38.43
2188;BME280;1100;52.014;8.540;2022-08-07T17:34:12;100832.81;;;22.44;38.68
2188;BME280;1100;52.014;8.540;2022-08-07T17:36:42;100829.97;;;22.38;38.53
2188;BME280;1100;52.014;8.540;2022-08-07T17:39:18;100839.19;;;22.33;38.56
2188;BME280;1100;52.014;8.540;2022-08-07T17:41:47;100835.53;;;22.27;38.63
2188;BME280;1100;52.014;8.540;2022-08-07T17:44:20;100830.59;;;22.22;38.84
2188;BME280;1100;52.014;8.540;2022-08-07T17:46:55;100823.63;;;22.17;38.99
2188;BME280;1100;52.014;8.540;2022-08-07T17:49:28;100830.31;;;22.14;39.11
2188;BME280;1100;52.014;8.540;2022-08-07T17:52:04;100829.25;;;22.11;38.97
2188;BME280;1100;52.014;8.540;2022-08-07T17:54:42;100827.94;;;22.07;39.25
2188;BME280;1100;52.014;8.540;2022-08-07T17:57:30;100824.81;;;22.05;39.17
2188;BME280;1100;52.014;8.540;2022-08-07T18:00:09;100818.63;;;22.00;39.26
2188;BME280;1100;52.014;8.540;2022-08-07T18:02:42;100815.53;;;21.98;39.20
2188;BME280;1100;52.014;8.540;2022-08-07T18:05:23;100814.97;;;21.94;39.32
2188;BME280;1100;52.014;8.540;2022-08-07T18:08:09;100818.31;;;21.93;39.35
2188;BME280;1100;52.014;8.540;2022-08-07T18:13:26;100822.16;;;21.89;39.47
2188;BME280;1100;52.014;8.540;2022-08-07T18:22:14;100838.03;;;21.81;39.86
2188;BME280;1100;52.014;8.540;2022-08-07T18:24:56;100836.19;;;21.78;39.94
2188;BME280;1100;52.014;8.540;2022-08-07T18:30:42;100837.13;;;21.69;40.01
2188;BME280;1100;52.014;8.540;2022-08-07T18:33:35;100842.25;;;21.65;40.18
2188;BME280;1100;52.014;8.540;2022-08-07T18:37:08;100845.78;;;21.60;40.32
2188;BME280;1100;52.014;8.540;2022-08-07T18:39:24;100846.50;;;21.54;40.45
2188;BME280;1100;52.014;8.540;2022-08-07T19:00:34;100864.72;;;21.06;41.18
2188;BME280;1100;52.014;8.540;2022-08-07T19:03:17;100872.78;;;20.93;41.15
2188;BME280;1100;52.014;8.540;2022-08-07T19:05:55;100880.09;;;20.84;41.46
2188;BME280;1100;52.014;8.540;2022-08-07T19:11:08;100883.75;;;20.70;41.80
2188;BME280;1100;52.014;8.540;2022-08-07T19:16:32;100883.59;;;20.58;41.94
2188;BME280;1100;52.014;8.540;2022-08-07T19:21:53;100891.97;;;20.52;42.27
2188;BME280;1100;52.014;8.540;2022-08-07T19:24:39;100891.22;;;20.52;42.26
2188;BME280;1100;52.014;8.540;2022-08-07T19:27:12;100890.91;;;20.50;42.13
2188;BME280;1100;52.014;8.540;2022-08-07T19:29:40;100904.25;;;20.49;42.31
2188;BME280;1100;52.014;8.540;2022-08-07T19:32:07;100902.13;;;20.44;42.49
2188;BME280;1100;52.014;8.540;2022-08-07T19:34:34;100898.72;;;20.40;42.37
2188;BME280;1100;52.014;8.540;2022-08-07T19:37:02;100907.41;;;20.36;42.58
2188;BME280;1100;52.014;8.540;2022-08-07T19:39:30;100916.56;;;20.31;42.61
2188;BME280;1100;52.014;8.540;2022-08-07T19:41:58;100917.53;;;20.28;42.64
2188;BME280;1100;52.014;8.540;2022-08-07T19:44:39;100918.50;;;20.25;42.74
2188;BME280;1100;52.014;8.540;2022-08-07T19:47:15;100920.47;;;20.19;42.88
2188;BME280;1100;52.014;8.540;2022-08-07T19:49:45;100911.59;;;20.11;42.90
2188;BME280;1100;52.014;8.540;2022-08-07T19:52:13;100911.53;;;20.05;42.92
2188;BME280;1100;52.014;8.540;2022-08-07T19:54:41;100914.19;;;19.99;43.03
2188;BME280;1100;52.014;8.540;2022-08-07T19:57:08;100910.97;;;19.91;43.15
2188;BME280;1100;52.014;8.540;2022-08-07T19:59:39;100915.25;;;19.87;43.19
2188;BME280;1100;52.014;8.540;2022-08-07T20:02:06;100915.94;;;19.82;43.24
2188;BME280;1100;52.014;8.540;2022-08-07T20:04:41;100911.47;;;19.75;43.28
2188;BME280;1100;52.014;8.540;2022-08-07T20:07:09;100916.22;;;19.69;43.47
2188;BME280;1100;52.014;8.540;2022-08-07T20:09:47;100913.47;;;19.59;43.54
2188;BME280;1100;52.014;8.540;2022-08-07T20:12:14;100912.13;;;19.54;43.70
2188;BME280;1100;52.014;8.540;2022-08-07T20:14:43;100911.97;;;19.49;43.71
2188;BME280;1100;52.014;8.540;2022-08-07T20:17:11;100907.78;;;19.44;43.94
2188;BME280;1100;52.014;8.540;2022-08-07T20:19:37;100917.22;;;19.41;43.81
2188;BME280;1100;52.014;8.540;2022-08-07T20:22:07;100913.72;;;19.31;44.03
2188;BME280;1100;52.014;8.540;2022-08-07T20:24:34;100924.84;;;19.25;44.01
2188;BME280;1100;52.014;8.540;2022-08-07T20:27:04;100921.63;;;19.17;44.30
2188;BME280;1100;52.014;8.540;2022-08-07T20:29:35;100917.41;;;19.13;44.35
2188;BME280;1100;52.014;8.540;2022-08-07T20:32:05;100915.56;;;19.10;44.59
2188;BME280;1100;52.014;8.540;2022-08-07T20:34:34;100925.28;;;19.09;44.50
2188;BME280;1100;52.014;8.540;2022-08-07T20:37:02;100921.38;;;19.06;44.49
2188;BME280;1100;52.014;8.540;2022-08-07T20:39:31;100911.81;;;19.03;44.75
2188;BME280;1100;52.014;8.540;2022-08-07T20:41:59;100912.97;;;18.97;44.80
2188;BME280;1100;52.014;8.540;2022-08-07T20:44:31;100916.44;;;18.91;44.84
2188;BME280;1100;52.014;8.540;2022-08-07T20:46:58;100914.25;;;18.86;44.88
2188;BME280;1100;52.014;8.540;2022-08-07T20:49:28;100923.38;;;18.81;45.01
2188;BME280;1100;52.014;8.540;2022-08-07T20:51:55;100919.03;;;18.71;45.21
2188;BME280;1100;52.014;8.540;2022-08-07T20:54:21;100921.56;;;18.68;45.13
2188;BME280;1100;52.014;8.540;2022-08-07T20:56:50;100915.31;;;18.64;45.17
2188;BME280;1100;52.014;8.540;2022-08-07T20:59:18;100918.28;;;18.61;45.44
2188;BME280;1100;52.014;8.540;2022-08-07T21:01:46;100915.66;;;18.57;45.29
2188;BME280;1100;52.014;8.540;2022-08-07T21:04:16;100917.09;;;18.52;45.54
2188;BME280;1100;52.014;8.540;2022-08-07T21:06:43;100916.47;;;18.48;45.27
2188;BME280;1100;52.014;8.540;2022-08-07T21:09:11;100917.41;;;18.45;45.91
2188;BME280;1100;52.014;8.540;2022-08-07T21:11:39;100923.22;;;18.41;45.84
2188;BME280;1100;52.014;8.540;2022-08-07T21:14:09;100929.81;;;18.38;45.84
2188;BME280;1100;52.014;8.540;2022-08-07T21:16:38;100924.81;;;18.33;45.85
2188;BME280;1100;52.014;8.540;2022-08-07T21:19:09;100930.91;;;18.32;46.08
2188;BME280;1100;52.014;8.540;2022-08-07T21:21:36;100931.88;;;18.28;45.94
2188;BME280;1100;52.014;8.540;2022-08-07T21:24:10;100934.84;;;18.25;46.24
2188;BME280;1100;52.014;8.540;2022-08-07T21:26:59;100933.44;;;18.20;46.42
2188;BME280;1100;52.014;8.540;2022-08-07T21:29:34;100943.63;;;18.17;46.31
2188;BME280;1100;52.014;8.540;2022-08-07T21:35:16;100929.84;;;18.10;46.35
2188;BME280;1100;52.014;8.540;2022-08-07T21:37:48;100935.31;;;18.04;46.63
2188;BME280;1100;52.014;8.540;2022-08-07T21:43:00;100940.81;;;17.99;46.89
2188;BME280;1100;52.014;8.540;2022-08-07T21:45:42;100928.00;;;17.98;46.80
2188;BME280;1100;52.014;8.540;2022-08-07T21:48:14;100937.22;;;17.98;46.99
2188;BME280;1100;52.014;8.540;2022-08-07T21:50:50;100935.81;;;17.93;47.12
2188;BME280;1100;52.014;8.540;2022-08-07T21:53:34;100945.19;;;17.90;47.07
2188;BME280;1100;52.014;8.540;2022-08-07T21:56:23;100939.75;;;17.87;47.15
2188;BME280;1100;52.014;8.540;2022-08-07T21:58:57;100935.22;;;17.80;47.20
2188;BME280;1100;52.014;8.540;2022-08-07T22:01:40;100939.28;;;17.79;47.39
2188;BME280;1100;52.014;8.540;2022-08-07T22:04:11;100942.56;;;17.77;47.40
2188;BME280;1100;52.014;8.540;2022-08-07T22:06:47;100945.19;;;17.72;47.43
2188;BME280;1100;52.014;8.540;2022-08-07T22:09:16;100934.41;;;17.70;47.63
2188;BME280;1100;52.014;8.540;2022-08-07T22:11:51;100937.69;;;17.68;47.75
2188;BME280;1100;52.014;8.540;2022-08-07T22:14:20;100941.31;;;17.69;47.59
2188;BME280;1100;52.014;8.540;2022-08-07T22:16:50;100943.03;;;17.66;47.75
2188;BME280;1100;52.014;8.540;2022-08-07T22:22:12;100936.16;;;17.58;48.14
2188;BME280;1100;52.014;8.540;2022-08-07T22:24:46;100936.28;;;17.54;47.88
2188;BME280;1100;52.014;8.540;2022-08-07T22:32:38;100952.53;;;17.41;48.33
2188;BME280;1100;52.014;8.540;2022-08-07T22:35:09;100944.72;;;17.36;48.20
2188;BME280;1100;52.014;8.540;2022-08-07T22:37:44;100951.28;;;17.33;48.32
2188;BME280;1100;52.014;8.540;2022-08-07T22:46:15;100950.63;;;17.19;48.70
2188;BME280;1100;52.014;8.540;2022-08-07T22:51:51;100953.72;;;17.12;48.65
2188;BME280;1100;52.014;8.540;2022-08-07T22:57:20;100957.72;;;17.01;49.06
2188;BME280;1100;52.014;8.540;2022-08-07T23:00:03;100964.28;;;16.98;49.28
2188;BME280;1100;52.014;8.540;2022-08-07T23:17:26;100950.03;;;16.83;49.60
2188;BME280;1100;52.014;8.540;2022-08-07T23:28:45;100944.19;;;16.68;49.97
2188;BME280;1100;52.014;8.540;2022-08-07T23:36:40;100943.09;;;16.65;49.92
2188;BME280;1100;52.014;8.540;2022-08-07T23:39:37;100949.97;;;16.64;50.04
2188;BME280;1100;52.014;8.540;2022-08-07T23:50:40;100959.97;;;16.43;50.46
2188;BME280;1100;52.014;8.540;2022-08-07T23:58:43;100952.19;;;16.38;50.63
